Astoria, Oregon
Current Conditions -  °F | °C
As of 6:12 PM on Sunday 23 Nov 2014 (Local Time) from KAST Reporting Station
Haze Haze  
Wind Chill: 43°   Ceiling: 2500
Heat Index: 45°   Visibility: 6mi
Dew Point: 44°   Wind: 5mph
Humidity: 97%   Direction: 140°SE
Pressure: 30.28"   Gusts: NA
Location:  46.19°N, 123.83°W
Report Text: KAST 240212Z AUTO 14004KT 6SM BR OVC025 07/07 A3028 RMK AO2 VIS 2 RWY 08 T00720067
Loading
Personal Weather Stations






























Interactive Weather Map New forecast layout! Learn more

10-Day Weather Forecast

Advertisements
Track Severe Weather on mobile